This is the latest recevied weather packets stored in our database for station/object G4IRX-10. If no packets are shown the sender has not sent any weather packets the latest 1 day(s).
| Time | Temp. | Humidity | Pressure | Rain* | Wind** | Luminosity | Snow |
|---|---|---|---|---|---|---|---|
| 1778102460 | 13.89° C | 45% | 1016.7 hPa | - | - | - | - |
| 1778097995 | 16.11° C | 40% | 1016.3 hPa | - | - | - | - |
| 1778097095 | 16.67° C | 40% | 1016.3 hPa | - | - | - | - |
| 1778095294 | 15° C | 48% | 1016.2 hPa | - | - | - | - |
| 1778092464 | 17.78° C | 38% | 1016 hPa | - | - | - | - |
| 1778084363 | 18.89° C | 37% | 1015.5 hPa | - | - | - | - |
| 1778083463 | 18.89° C | 38% | 1015.5 hPa | - | - | - | - |
| 1778082563 | 19.44° C | 37% | 1015.6 hPa | - | - | - | - |
| 1778081663 | 19.44° C | 37% | 1015.6 hPa | - | - | - | - |
| 1778074462 | 19.44° C | 39% | 1015.7 hPa | - | - | - | - |
| 1778073562 | 19.44° C | 38% | 1015.5 hPa | - | - | - | - |
| 1778072662 | 18.89° C | 39% | 1015.6 hPa | - | - | - | - |
| 1778070862 | 18.33° C | 41% | 1015.4 hPa | - | - | - | - |
| 1778069962 | 18.33° C | 41% | 1015.5 hPa | - | - | - | - |
| 1778063661 | 15.56° C | 45% | 1015.7 hPa | - | - | - | - |
| 1778062761 | 15° C | 46% | 1015.7 hPa | - | - | - | - |
| 1778061861 | 15° C | 46% | 1015.7 hPa | - | - | - | - |
| 1778060961 | 15° C | 46% | 1015.9 hPa | - | - | - | - |
| 1778060061 | 14.44° C | 47% | 1015.9 hPa | - | - | - | - |
| 1778059161 | 14.44° C | 49% | 1015.7 hPa | - | - | - | - |
| 1778055560 | 13.33° C | 51% | 1016 hPa | - | - | - | - |
| 1778054660 | 12.78° C | 52% | 1016.1 hPa | - | - | - | - |
| 1778053760 | 12.22° C | 52% | 1016 hPa | - | - | - | - |
| 1778052860 | 12.22° C | 52% | 1016 hPa | - | - | - | - |
| 1778051960 | 11.67° C | 52% | 1016 hPa | - | - | - | - |
* Rain since midnight (hover to see other rain measurements)
** Current wind speed in m/s (hover to see current wind gust speed)